sensor_id;sensor_type;location;lat;lon;timestamp;pressure;altitude;pressure_sealevel;temperature;humidity
19576;BME280;41589;51.196;7.074;2023-09-18T00:04:12;98106.84;;;24.30;56.98
19576;BME280;41589;51.196;7.074;2023-09-18T00:09:12;98115.28;;;24.28;56.83
19576;BME280;41589;51.196;7.074;2023-09-18T00:14:14;98092.81;;;24.34;56.71
19576;BME280;41589;51.196;7.074;2023-09-18T00:19:14;98081.50;;;24.36;56.27
19576;BME280;41589;51.196;7.074;2023-09-18T00:24:14;98075.38;;;24.32;55.98
19576;BME280;41589;51.196;7.074;2023-09-18T00:29:15;98081.47;;;24.44;55.80
19576;BME280;41589;51.196;7.074;2023-09-18T00:34:15;98061.59;;;24.38;55.69
19576;BME280;41589;51.196;7.074;2023-09-18T00:39:16;98054.06;;;24.43;55.30
19576;BME280;41589;51.196;7.074;2023-09-18T00:44:16;98055.44;;;24.42;55.10
19576;BME280;41589;51.196;7.074;2023-09-18T00:49:18;98048.31;;;24.43;55.09
19576;BME280;41589;51.196;7.074;2023-09-18T00:54:19;98040.88;;;24.32;55.35
19576;BME280;41589;51.196;7.074;2023-09-18T00:59:20;98032.09;;;24.30;55.05
19576;BME280;41589;51.196;7.074;2023-09-18T01:04:21;98025.91;;;24.34;54.59
19576;BME280;41589;51.196;7.074;2023-09-18T01:09:23;98019.22;;;24.39;54.87
19576;BME280;41589;51.196;7.074;2023-09-18T01:14:37;98016.16;;;24.37;54.56
19576;BME280;41589;51.196;7.074;2023-09-18T01:19:40;98022.44;;;24.35;54.60
19576;BME280;41589;51.196;7.074;2023-09-18T01:24:41;98015.94;;;24.35;54.53
19576;BME280;41589;51.196;7.074;2023-09-18T01:29:45;98015.59;;;24.38;54.40
19576;BME280;41589;51.196;7.074;2023-09-18T01:34:48;98012.31;;;24.34;54.32
19576;BME280;41589;51.196;7.074;2023-09-18T01:39:50;98001.38;;;24.40;54.32
19576;BME280;41589;51.196;7.074;2023-09-18T01:44:52;97992.75;;;24.33;54.31
19576;BME280;41589;51.196;7.074;2023-09-18T01:49:53;97976.53;;;24.28;54.27
19576;BME280;41589;51.196;7.074;2023-09-18T01:54:53;97975.00;;;24.27;54.56
19576;BME280;41589;51.196;7.074;2023-09-18T01:59:54;97961.00;;;24.23;54.52
19576;BME280;41589;51.196;7.074;2023-09-18T02:04:57;97972.88;;;24.27;54.20
19576;BME280;41589;51.196;7.074;2023-09-18T02:09:59;97962.97;;;24.21;54.48
19576;BME280;41589;51.196;7.074;2023-09-18T02:14:59;97953.91;;;24.24;54.52
19576;BME280;41589;51.196;7.074;2023-09-18T02:20:01;97942.06;;;24.20;54.55
19576;BME280;41589;51.196;7.074;2023-09-18T02:25:05;97936.75;;;24.16;54.55
19576;BME280;41589;51.196;7.074;2023-09-18T02:30:06;97915.25;;;24.17;54.32
19576;BME280;41589;51.196;7.074;2023-09-18T02:35:08;97919.50;;;24.16;54.50
19576;BME280;41589;51.196;7.074;2023-09-18T02:40:09;97933.44;;;24.20;54.21
19576;BME280;41589;51.196;7.074;2023-09-18T02:45:09;97930.88;;;24.07;54.38
19576;BME280;41589;51.196;7.074;2023-09-18T02:50:10;97922.00;;;24.12;54.42
19576;BME280;41589;51.196;7.074;2023-09-18T02:55:11;97913.88;;;24.26;54.01
19576;BME280;41589;51.196;7.074;2023-09-18T03:00:13;97908.59;;;24.40;53.65
19576;BME280;41589;51.196;7.074;2023-09-18T03:05:14;97906.47;;;24.40;53.63
19576;BME280;41589;51.196;7.074;2023-09-18T03:10:15;97896.34;;;24.39;53.89
19576;BME280;41589;51.196;7.074;2023-09-18T03:15:17;97869.56;;;24.29;54.15
19576;BME280;41589;51.196;7.074;2023-09-18T03:20:17;97870.06;;;24.35;54.36
19576;BME280;41589;51.196;7.074;2023-09-18T03:25:17;97846.09;;;24.40;54.33
19576;BME280;41589;51.196;7.074;2023-09-18T03:30:19;97869.53;;;24.37;54.52
19576;BME280;41589;51.196;7.074;2023-09-18T03:35:20;97867.03;;;24.33;54.96
19576;BME280;41589;51.196;7.074;2023-09-18T03:40:22;97849.91;;;24.18;55.71
19576;BME280;41589;51.196;7.074;2023-09-18T03:45:22;97834.25;;;24.11;56.89
19576;BME280;41589;51.196;7.074;2023-09-18T03:50:24;97861.00;;;23.97;57.00
19576;BME280;41589;51.196;7.074;2023-09-18T03:55:25;97892.94;;;23.76;57.91
19576;BME280;41589;51.196;7.074;2023-09-18T04:00:25;97870.44;;;23.57;58.75
19576;BME280;41589;51.196;7.074;2023-09-18T04:05:26;97862.28;;;23.38;59.23
19576;BME280;41589;51.196;7.074;2023-09-18T04:10:26;97843.38;;;23.35;60.05
19576;BME280;41589;51.196;7.074;2023-09-18T04:15:27;97839.56;;;23.32;60.40
19576;BME280;41589;51.196;7.074;2023-09-18T04:20:27;97854.13;;;23.27;60.50
19576;BME280;41589;51.196;7.074;2023-09-18T04:25:28;97870.78;;;23.21;60.58
19576;BME280;41589;51.196;7.074;2023-09-18T04:30:30;97857.84;;;23.12;61.46
19576;BME280;41589;51.196;7.074;2023-09-18T04:35:30;97827.22;;;23.07;61.86
19576;BME280;41589;51.196;7.074;2023-09-18T04:40:32;97828.41;;;23.04;61.81
19576;BME280;41589;51.196;7.074;2023-09-18T04:45:33;97858.03;;;22.99;62.03
19576;BME280;41589;51.196;7.074;2023-09-18T04:50:52;97836.41;;;22.98;62.63
19576;BME280;41589;51.196;7.074;2023-09-18T04:55:53;97827.44;;;22.94;62.67
19576;BME280;41589;51.196;7.074;2023-09-18T05:00:58;97832.44;;;22.86;62.39
19576;BME280;41589;51.196;7.074;2023-09-18T05:06:00;97821.00;;;22.78;63.09
19576;BME280;41589;51.196;7.074;2023-09-18T05:11:01;97844.16;;;22.72;63.47
19576;BME280;41589;51.196;7.074;2023-09-18T05:16:04;97855.25;;;22.68;63.74
19576;BME280;41589;51.196;7.074;2023-09-18T05:21:04;97837.28;;;22.68;63.84
19576;BME280;41589;51.196;7.074;2023-09-18T05:26:05;97842.84;;;22.66;64.32
19576;BME280;41589;51.196;7.074;2023-09-18T05:31:05;97840.19;;;22.60;64.26
19576;BME280;41589;51.196;7.074;2023-09-18T05:36:05;97850.50;;;22.63;64.39
19576;BME280;41589;51.196;7.074;2023-09-18T05:41:06;97845.88;;;22.68;64.44
19576;BME280;41589;51.196;7.074;2023-09-18T05:46:06;97848.22;;;22.62;64.32
19576;BME280;41589;51.196;7.074;2023-09-18T05:51:06;97856.22;;;22.56;64.86
19576;BME280;41589;51.196;7.074;2023-09-18T05:56:07;97867.72;;;22.56;64.68
19576;BME280;41589;51.196;7.074;2023-09-18T06:01:09;97883.75;;;22.59;64.72
19576;BME280;41589;51.196;7.074;2023-09-18T06:06:09;97865.59;;;22.56;64.47
19576;BME280;41589;51.196;7.074;2023-09-18T06:11:12;97878.59;;;22.57;64.46
19576;BME280;41589;51.196;7.074;2023-09-18T06:16:12;97886.44;;;22.57;64.44
19576;BME280;41589;51.196;7.074;2023-09-18T06:21:13;97883.56;;;22.64;64.37
19576;BME280;41589;51.196;7.074;2023-09-18T06:26:13;97893.88;;;22.67;64.47
19576;BME280;41589;51.196;7.074;2023-09-18T06:31:14;97900.38;;;22.68;64.47
19576;BME280;41589;51.196;7.074;2023-09-18T06:36:16;97874.56;;;22.68;64.21
19576;BME280;41589;51.196;7.074;2023-09-18T06:41:16;97887.75;;;22.71;64.37
19576;BME280;41589;51.196;7.074;2023-09-18T06:46:26;97892.34;;;22.82;63.88
19576;BME280;41589;51.196;7.074;2023-09-18T06:51:27;97894.78;;;22.85;63.62
19576;BME280;41589;51.196;7.074;2023-09-18T06:56:30;97896.13;;;22.92;63.38
19576;BME280;41589;51.196;7.074;2023-09-18T07:01:30;97897.25;;;22.89;63.58
19576;BME280;41589;51.196;7.074;2023-09-18T07:06:31;97907.78;;;22.94;63.25
19576;BME280;41589;51.196;7.074;2023-09-18T07:11:33;97905.69;;;23.02;63.47
19576;BME280;41589;51.196;7.074;2023-09-18T07:16:36;97924.75;;;23.22;62.64
19576;BME280;41589;51.196;7.074;2023-09-18T07:21:41;97911.09;;;23.38;62.49
19576;BME280;41589;51.196;7.074;2023-09-18T07:26:44;97916.06;;;23.45;61.82
19576;BME280;41589;51.196;7.074;2023-09-18T07:31:45;97927.44;;;23.60;61.36
19576;BME280;41589;51.196;7.074;2023-09-18T07:36:46;97939.50;;;23.74;61.19
19576;BME280;41589;51.196;7.074;2023-09-18T07:41:47;97938.16;;;23.75;60.69
19576;BME280;41589;51.196;7.074;2023-09-18T07:46:48;97948.22;;;23.84;60.53
19576;BME280;41589;51.196;7.074;2023-09-18T07:51:48;97954.03;;;23.76;60.59
19576;BME280;41589;51.196;7.074;2023-09-18T07:56:51;97958.25;;;23.68;60.45
19576;BME280;41589;51.196;7.074;2023-09-18T08:01:51;97964.63;;;23.58;60.35
19576;BME280;41589;51.196;7.074;2023-09-18T08:06:52;97958.06;;;23.66;60.79
19576;BME280;41589;51.196;7.074;2023-09-18T08:11:52;97962.28;;;23.72;60.26
19576;BME280;41589;51.196;7.074;2023-09-18T08:16:58;97983.78;;;23.56;60.35
19576;BME280;41589;51.196;7.074;2023-09-18T08:21:59;97985.34;;;23.42;60.77
19576;BME280;41589;51.196;7.074;2023-09-18T08:26:59;97987.84;;;23.45;61.19
19576;BME280;41589;51.196;7.074;2023-09-18T08:32:00;97966.38;;;23.54;60.40
19576;BME280;41589;51.196;7.074;2023-09-18T08:37:00;97978.38;;;23.60;60.09
19576;BME280;41589;51.196;7.074;2023-09-18T08:42:04;97981.44;;;23.62;60.27
19576;BME280;41589;51.196;7.074;2023-09-18T08:47:06;97993.09;;;23.72;60.36
19576;BME280;41589;51.196;7.074;2023-09-18T08:52:08;97988.06;;;23.87;59.79
19576;BME280;41589;51.196;7.074;2023-09-18T08:57:09;97983.44;;;23.92;59.02
19576;BME280;41589;51.196;7.074;2023-09-18T09:02:10;97997.94;;;24.02;59.09
19576;BME280;41589;51.196;7.074;2023-09-18T09:07:11;97975.50;;;24.08;58.81
19576;BME280;41589;51.196;7.074;2023-09-18T09:12:12;97968.88;;;24.23;59.29
19576;BME280;41589;51.196;7.074;2023-09-18T09:17:18;97991.75;;;24.45;58.30
19576;BME280;41589;51.196;7.074;2023-09-18T09:22:20;97991.81;;;24.38;57.07
19576;BME280;41589;51.196;7.074;2023-09-18T09:27:21;97995.34;;;24.21;57.35
19576;BME280;41589;51.196;7.074;2023-09-18T09:32:21;97986.13;;;24.23;56.49
19576;BME280;41589;51.196;7.074;2023-09-18T09:37:29;97999.59;;;24.12;56.45
19576;BME280;41589;51.196;7.074;2023-09-18T09:42:38;98004.72;;;24.22;56.93
19576;BME280;41589;51.196;7.074;2023-09-18T09:47:39;97994.13;;;24.32;56.27
19576;BME280;41589;51.196;7.074;2023-09-18T09:52:43;98000.03;;;24.41;55.41
19576;BME280;41589;51.196;7.074;2023-09-18T09:57:48;97998.53;;;24.33;54.79
19576;BME280;41589;51.196;7.074;2023-09-18T10:02:49;97996.06;;;24.29;55.64
19576;BME280;41589;51.196;7.074;2023-09-18T10:07:50;98000.28;;;24.28;54.47
19576;BME280;41589;51.196;7.074;2023-09-18T10:12:53;97999.09;;;24.39;54.64
19576;BME280;41589;51.196;7.074;2023-09-18T10:17:56;97988.38;;;24.57;54.14
19576;BME280;41589;51.196;7.074;2023-09-18T10:22:58;97975.25;;;24.71;54.08
19576;BME280;41589;51.196;7.074;2023-09-18T10:28:00;97977.31;;;25.20;53.90
19576;BME280;41589;51.196;7.074;2023-09-18T10:33:01;97981.19;;;25.32;54.06
19576;BME280;41589;51.196;7.074;2023-09-18T10:38:02;97975.44;;;25.67;53.16
19576;BME280;41589;51.196;7.074;2023-09-18T10:43:09;97996.66;;;25.89;52.30
19576;BME280;41589;51.196;7.074;2023-09-18T10:48:11;97992.47;;;26.00;51.69
19576;BME280;41589;51.196;7.074;2023-09-18T10:53:16;97987.59;;;26.19;52.13
19576;BME280;41589;51.196;7.074;2023-09-18T10:58:23;98000.94;;;26.42;51.12
19576;BME280;41589;51.196;7.074;2023-09-18T11:03:25;97987.72;;;26.39;50.15
19576;BME280;41589;51.196;7.074;2023-09-18T11:08:36;97989.25;;;26.40;49.55
19576;BME280;41589;51.196;7.074;2023-09-18T11:13:51;97982.09;;;26.41;49.04
19576;BME280;41589;51.196;7.074;2023-09-18T11:24:19;97980.44;;;26.38;48.89
19576;BME280;41589;51.196;7.074;2023-09-18T11:29:26;97976.34;;;26.41;47.98
19576;BME280;41589;51.196;7.074;2023-09-18T11:34:29;97989.75;;;26.46;48.16
19576;BME280;41589;51.196;7.074;2023-09-18T11:39:37;97990.88;;;26.33;47.37
19576;BME280;41589;51.196;7.074;2023-09-18T11:44:39;97982.91;;;26.24;47.79
19576;BME280;41589;51.196;7.074;2023-09-18T11:49:47;97980.31;;;26.45;47.38
19576;BME280;41589;51.196;7.074;2023-09-18T11:54:59;97972.72;;;26.87;47.96
19576;BME280;41589;51.196;7.074;2023-09-18T12:00:00;97964.06;;;26.87;45.91
19576;BME280;41589;51.196;7.074;2023-09-18T12:05:15;97967.94;;;26.72;46.00
19576;BME280;41589;51.196;7.074;2023-09-18T12:10:18;97952.69;;;26.52;44.90
19576;BME280;41589;51.196;7.074;2023-09-18T12:15:19;97953.81;;;26.66;45.60
19576;BME280;41589;51.196;7.074;2023-09-18T12:20:48;97948.81;;;26.30;45.15
19576;BME280;41589;51.196;7.074;2023-09-18T12:25:50;97959.31;;;26.08;45.71
19576;BME280;41589;51.196;7.074;2023-09-18T12:30:57;97962.22;;;25.91;46.09
19576;BME280;41589;51.196;7.074;2023-09-18T12:36:05;97938.91;;;25.70;46.34
19576;BME280;41589;51.196;7.074;2023-09-18T12:41:06;97941.25;;;25.81;46.69
19576;BME280;41589;51.196;7.074;2023-09-18T12:46:09;97940.19;;;26.13;45.51
19576;BME280;41589;51.196;7.074;2023-09-18T12:51:13;97924.41;;;26.04;44.17
19576;BME280;41589;51.196;7.074;2023-09-18T12:56:19;97921.53;;;26.41;44.83
19576;BME280;41589;51.196;7.074;2023-09-18T13:01:25;97917.69;;;26.85;43.65
19576;BME280;41589;51.196;7.074;2023-09-18T13:06:28;97927.28;;;26.87;42.83
19576;BME280;41589;51.196;7.074;2023-09-18T13:11:29;97929.75;;;26.91;41.99
19576;BME280;41589;51.196;7.074;2023-09-18T13:16:29;97923.97;;;26.91;41.32
19576;BME280;41589;51.196;7.074;2023-09-18T13:21:29;97918.59;;;26.78;41.73
19576;BME280;41589;51.196;7.074;2023-09-18T13:26:30;97915.59;;;26.95;42.55
19576;BME280;41589;51.196;7.074;2023-09-18T13:31:30;97917.47;;;27.29;41.98
19576;BME280;41589;51.196;7.074;2023-09-18T13:36:37;97913.22;;;27.30;40.70
19576;BME280;41589;51.196;7.074;2023-09-18T13:41:39;97909.88;;;27.53;39.22
19576;BME280;41589;51.196;7.074;2023-09-18T13:46:41;97913.81;;;27.28;39.05
19576;BME280;41589;51.196;7.074;2023-09-18T13:51:45;97908.19;;;27.30;39.75
19576;BME280;41589;51.196;7.074;2023-09-18T13:56:45;97899.06;;;27.63;39.96
19576;BME280;41589;51.196;7.074;2023-09-18T14:01:45;97904.63;;;27.80;39.99
19576;BME280;41589;51.196;7.074;2023-09-18T14:06:46;97903.75;;;27.68;38.18
19576;BME280;41589;51.196;7.074;2023-09-18T14:11:46;97903.00;;;27.48;38.13
19576;BME280;41589;51.196;7.074;2023-09-18T14:16:47;97905.16;;;27.48;37.46
19576;BME280;41589;51.196;7.074;2023-09-18T14:21:50;97879.59;;;27.25;36.53
19576;BME280;41589;51.196;7.074;2023-09-18T14:26:53;97871.69;;;27.45;37.07
19576;BME280;41589;51.196;7.074;2023-09-18T14:31:55;97869.69;;;27.67;37.07
19576;BME280;41589;51.196;7.074;2023-09-18T14:36:56;97870.03;;;27.51;37.13
19576;BME280;41589;51.196;7.074;2023-09-18T14:41:57;97869.69;;;27.57;37.66
19576;BME280;41589;51.196;7.074;2023-09-18T14:46:58;97873.31;;;27.67;37.31
19576;BME280;41589;51.196;7.074;2023-09-18T14:51:58;97862.09;;;27.62;37.49
19576;BME280;41589;51.196;7.074;2023-09-18T14:56:59;97864.88;;;27.50;37.69
19576;BME280;41589;51.196;7.074;2023-09-18T15:02:01;97864.25;;;27.42;37.25
19576;BME280;41589;51.196;7.074;2023-09-18T15:07:03;97864.25;;;27.32;37.40
19576;BME280;41589;51.196;7.074;2023-09-18T15:12:04;97858.34;;;27.11;36.49
19576;BME280;41589;51.196;7.074;2023-09-18T15:17:07;97856.63;;;26.79;36.42
19576;BME280;41589;51.196;7.074;2023-09-18T15:22:08;97855.13;;;26.78;36.77
19576;BME280;41589;51.196;7.074;2023-09-18T15:27:08;97841.28;;;26.66;36.77
19576;BME280;41589;51.196;7.074;2023-09-18T15:32:09;97837.03;;;26.67;37.04
19576;BME280;41589;51.196;7.074;2023-09-18T15:37:09;97837.63;;;26.66;37.17
19576;BME280;41589;51.196;7.074;2023-09-18T15:42:09;97837.63;;;26.56;37.04
19576;BME280;41589;51.196;7.074;2023-09-18T15:47:10;97830.50;;;26.67;37.54
19576;BME280;41589;51.196;7.074;2023-09-18T15:52:10;97825.44;;;26.38;37.42
19576;BME280;41589;51.196;7.074;2023-09-18T15:57:11;97821.88;;;26.21;37.74
19576;BME280;41589;51.196;7.074;2023-09-18T16:02:11;97828.03;;;25.98;37.95
19576;BME280;41589;51.196;7.074;2023-09-18T16:07:11;97828.38;;;25.75;38.32
19576;BME280;41589;51.196;7.074;2023-09-18T16:12:13;97835.16;;;25.70;38.45
19576;BME280;41589;51.196;7.074;2023-09-18T16:17:13;97844.66;;;25.63;38.60
19576;BME280;41589;51.196;7.074;2023-09-18T16:22:14;97837.03;;;25.57;39.04
19576;BME280;41589;51.196;7.074;2023-09-18T16:27:15;97846.75;;;25.52;38.80
19576;BME280;41589;51.196;7.074;2023-09-18T16:32:16;97855.69;;;25.56;38.98
19576;BME280;41589;51.196;7.074;2023-09-18T16:37:16;97855.94;;;25.51;39.22
19576;BME280;41589;51.196;7.074;2023-09-18T16:42:17;97856.84;;;25.44;39.48
19576;BME280;41589;51.196;7.074;2023-09-18T16:47:17;97858.72;;;25.31;39.79
19576;BME280;41589;51.196;7.074;2023-09-18T16:52:19;97858.16;;;25.16;39.90
19576;BME280;41589;51.196;7.074;2023-09-18T16:57:20;97857.16;;;25.03;40.27
19576;BME280;41589;51.196;7.074;2023-09-18T17:02:20;97849.84;;;24.85;40.23
19576;BME280;41589;51.196;7.074;2023-09-18T17:07:21;97863.31;;;24.83;40.23
19576;BME280;41589;51.196;7.074;2023-09-18T17:12:21;97851.78;;;24.65;40.36
19576;BME280;41589;51.196;7.074;2023-09-18T17:17:22;97861.00;;;24.64;40.87
19576;BME280;41589;51.196;7.074;2023-09-18T17:22:23;97845.16;;;24.55;40.84
19576;BME280;41589;51.196;7.074;2023-09-18T17:27:23;97853.03;;;24.55;41.00
19576;BME280;41589;51.196;7.074;2023-09-18T17:32:23;97848.81;;;24.56;41.32
19576;BME280;41589;51.196;7.074;2023-09-18T17:37:24;97849.25;;;24.52;41.29
19576;BME280;41589;51.196;7.074;2023-09-18T17:42:26;97856.94;;;24.50;41.42
19576;BME280;41589;51.196;7.074;2023-09-18T17:47:27;97866.38;;;24.42;41.75
19576;BME280;41589;51.196;7.074;2023-09-18T17:52:27;97861.25;;;24.33;41.77
19576;BME280;41589;51.196;7.074;2023-09-18T17:57:27;97869.91;;;24.33;42.51
19576;BME280;41589;51.196;7.074;2023-09-18T18:02:28;97885.78;;;24.34;42.73
19576;BME280;41589;51.196;7.074;2023-09-18T18:07:28;97998.50;;;24.08;43.08
19576;BME280;41589;51.196;7.074;2023-09-18T18:12:29;97990.34;;;22.11;46.61
19576;BME280;41589;51.196;7.074;2023-09-18T18:17:29;97979.41;;;19.82;53.85
19576;BME280;41589;51.196;7.074;2023-09-18T18:22:30;98012.53;;;18.85;56.33
19576;BME280;41589;51.196;7.074;2023-09-18T18:27:31;98039.88;;;18.61;59.12
19576;BME280;41589;51.196;7.074;2023-09-18T18:32:34;98051.69;;;18.52;62.15
19576;BME280;41589;51.196;7.074;2023-09-18T18:37:34;98065.81;;;18.44;67.59
19576;BME280;41589;51.196;7.074;2023-09-18T18:42:35;98055.16;;;18.13;78.63
19576;BME280;41589;51.196;7.074;2023-09-18T18:47:35;98048.84;;;17.82;88.63
19576;BME280;41589;51.196;7.074;2023-09-18T18:52:36;98048.63;;;17.62;97.22
19576;BME280;41589;51.196;7.074;2023-09-18T18:57:36;98046.59;;;17.56;100.00
19576;BME280;41589;51.196;7.074;2023-09-18T19:02:38;98027.00;;;17.72;100.00
19576;BME280;41589;51.196;7.074;2023-09-18T19:07:39;98039.06;;;17.78;100.00
19576;BME280;41589;51.196;7.074;2023-09-18T19:12:39;98036.00;;;17.76;100.00
19576;BME280;41589;51.196;7.074;2023-09-18T19:17:40;98027.63;;;17.83;100.00
19576;BME280;41589;51.196;7.074;2023-09-18T19:22:41;98026.47;;;17.92;100.00
19576;BME280;41589;51.196;7.074;2023-09-18T19:27:42;98040.22;;;17.88;100.00
19576;BME280;41589;51.196;7.074;2023-09-18T19:32:43;98053.31;;;17.78;100.00
19576;BME280;41589;51.196;7.074;2023-09-18T19:37:44;98044.22;;;17.79;100.00
19576;BME280;41589;51.196;7.074;2023-09-18T19:42:44;98041.47;;;17.74;100.00
19576;BME280;41589;51.196;7.074;2023-09-18T19:47:45;98037.09;;;17.73;100.00
19576;BME280;41589;51.196;7.074;2023-09-18T19:52:46;98042.28;;;17.69;100.00
19576;BME280;41589;51.196;7.074;2023-09-18T19:57:46;98040.53;;;17.66;100.00
19576;BME280;41589;51.196;7.074;2023-09-18T20:02:47;98051.09;;;17.71;100.00
19576;BME280;41589;51.196;7.074;2023-09-18T20:07:47;98065.00;;;17.74;100.00
19576;BME280;41589;51.196;7.074;2023-09-18T20:12:49;98057.84;;;17.68;100.00
19576;BME280;41589;51.196;7.074;2023-09-18T20:17:50;98061.16;;;17.72;100.00
19576;BME280;41589;51.196;7.074;2023-09-18T20:22:52;98045.22;;;17.63;100.00
19576;BME280;41589;51.196;7.074;2023-09-18T20:27:52;98069.06;;;17.79;100.00
19576;BME280;41589;51.196;7.074;2023-09-18T20:32:52;98064.47;;;17.76;100.00
19576;BME280;41589;51.196;7.074;2023-09-18T20:37:53;98070.47;;;17.72;100.00
19576;BME280;41589;51.196;7.074;2023-09-18T20:42:53;98081.84;;;17.72;100.00
19576;BME280;41589;51.196;7.074;2023-09-18T20:47:54;98060.41;;;17.71;100.00
19576;BME280;41589;51.196;7.074;2023-09-18T20:52:54;98071.06;;;17.65;100.00
19576;BME280;41589;51.196;7.074;2023-09-18T20:57:55;98076.28;;;17.80;100.00
19576;BME280;41589;51.196;7.074;2023-09-18T21:02:55;98085.09;;;17.82;100.00
19576;BME280;41589;51.196;7.074;2023-09-18T21:07:56;98084.31;;;17.81;100.00
19576;BME280;41589;51.196;7.074;2023-09-18T21:12:57;98089.53;;;17.77;100.00
19576;BME280;41589;51.196;7.074;2023-09-18T21:17:57;98096.47;;;17.82;100.00
19576;BME280;41589;51.196;7.074;2023-09-18T21:23:01;98087.31;;;17.70;100.00
19576;BME280;41589;51.196;7.074;2023-09-18T21:28:03;98104.41;;;17.70;100.00
19576;BME280;41589;51.196;7.074;2023-09-18T21:33:04;98104.75;;;17.80;100.00
19576;BME280;41589;51.196;7.074;2023-09-18T21:38:05;98092.91;;;17.76;100.00
19576;BME280;41589;51.196;7.074;2023-09-18T21:43:06;98106.38;;;17.75;100.00
19576;BME280;41589;51.196;7.074;2023-09-18T21:48:06;98098.22;;;17.66;100.00
19576;BME280;41589;51.196;7.074;2023-09-18T21:53:07;98117.44;;;17.60;100.00
19576;BME280;41589;51.196;7.074;2023-09-18T21:58:09;98126.75;;;17.60;100.00
19576;BME280;41589;51.196;7.074;2023-09-18T22:03:10;98130.53;;;17.44;100.00
19576;BME280;41589;51.196;7.074;2023-09-18T22:08:10;98129.28;;;17.40;100.00
19576;BME280;41589;51.196;7.074;2023-09-18T22:13:10;98135.03;;;17.34;100.00
19576;BME280;41589;51.196;7.074;2023-09-18T22:18:11;98146.16;;;17.32;100.00
19576;BME280;41589;51.196;7.074;2023-09-18T22:23:12;98156.22;;;17.33;100.00
19576;BME280;41589;51.196;7.074;2023-09-18T22:28:13;98157.59;;;17.26;100.00
19576;BME280;41589;51.196;7.074;2023-09-18T22:33:16;98163.56;;;17.23;100.00
19576;BME280;41589;51.196;7.074;2023-09-18T22:54:58;98182.38;;;17.01;100.00
19576;BME280;41589;51.196;7.074;2023-09-18T22:59:58;98187.06;;;16.99;100.00
19576;BME280;41589;51.196;7.074;2023-09-18T23:04:59;98199.19;;;16.99;100.00
19576;BME280;41589;51.196;7.074;2023-09-18T23:10:02;98195.63;;;16.93;100.00
19576;BME280;41589;51.196;7.074;2023-09-18T23:15:02;98211.78;;;16.74;100.00
19576;BME280;41589;51.196;7.074;2023-09-18T23:20:09;98203.78;;;16.72;100.00
19576;BME280;41589;51.196;7.074;2023-09-18T23:25:11;98220.41;;;16.57;100.00
19576;BME280;41589;51.196;7.074;2023-09-18T23:30:14;98223.84;;;16.44;100.00
19576;BME280;41589;51.196;7.074;2023-09-18T23:35:17;98227.28;;;16.26;100.00
19576;BME280;41589;51.196;7.074;2023-09-18T23:40:21;98228.63;;;16.14;100.00
19576;BME280;41589;51.196;7.074;2023-09-18T23:45:23;98236.88;;;16.12;100.00
19576;BME280;41589;51.196;7.074;2023-09-18T23:50:24;98236.38;;;16.08;100.00
19576;BME280;41589;51.196;7.074;2023-09-18T23:55:29;98238.47;;;16.02;100.00
